Time;durP1;ratioP1;P1;durP2;ratioP2;P2;SDS_P1;SDS_P2;PMS_P1;PMS_P2;Temp;Humidity;BMP_temperature;BMP_pressure;BME280_temperature;BME280_humidity;BME280_pressure;Samples;Min_cycle;Max_cycle;Signal;HPM_P1;HPM_P2
2022/08/10 00:01:26;;;;;;;6.67;5.63;;;;;;;23.71;55.99;95001.34;5053940;28;20438;-79
2022/08/10 00:03:53;;;;;;;7.93;5.00;;;;;;;23.68;56.40;95000.91;5054373;28;20449;-78
2022/08/10 00:06:20;;;;;;;9.90;5.43;;;;;;;23.64;56.58;94994.31;5018534;28;20791;-78
2022/08/10 00:08:47;;;;;;;6.80;6.10;;;;;;;23.62;57.01;94991.03;5054177;28;20555;-78
2022/08/10 00:11:14;;;;;;;6.60;5.90;;;;;;;23.63;57.22;94987.31;5053819;28;20905;-78
2022/08/10 00:13:43;;;;;;;7.70;5.50;;;;;;;23.63;57.24;94987.31;5053697;28;20454;-78
2022/08/10 00:16:10;;;;;;;8.73;5.80;;;;;;;23.64;57.04;94991.63;5035038;28;20445;-77
2022/08/10 00:18:37;;;;;;;6.17;5.67;;;;;;;23.64;57.51;94994.31;5053480;28;20940;-79
2022/08/10 00:21:05;;;;;;;6.50;5.77;;;;;;;23.62;57.27;94982.97;5053808;28;20453;-78
2022/08/10 00:23:32;;;;;;;6.40;5.90;;;;;;;23.57;57.37;94988.16;5053763;28;20442;-77
2022/08/10 00:25:59;;;;;;;6.47;5.83;;;;;;;23.58;57.83;94981.75;5053627;28;20454;-79
2022/08/10 00:28:26;;;;;;;7.00;6.43;;;;;;;23.55;57.36;94987.50;5053506;28;20667;-78
2022/08/10 00:30:54;;;;;;;6.30;5.80;;;;;;;23.55;57.75;94984.81;5053209;28;20457;-78
2022/08/10 00:33:21;;;;;;;6.27;5.77;;;;;;;23.46;57.91;94985.03;5053738;28;20449;-78
2022/08/10 00:35:48;;;;;;;5.60;5.20;;;;;;;23.48;57.96;94984.84;5053309;28;20511;-77
2022/08/10 00:38:15;;;;;;;7.83;5.77;;;;;;;23.46;57.77;94976.19;5053155;28;20917;-79
2022/08/10 00:40:42;;;;;;;6.00;5.40;;;;;;;23.42;57.69;94978.47;5053582;28;20472;-78
2022/08/10 00:43:09;;;;;;;7.00;6.10;;;;;;;23.37;57.73;94975.56;5052897;28;20453;-79
2022/08/10 00:45:36;;;;;;;8.70;6.07;;;;;;;23.36;58.55;94976.59;5018287;28;20450;-78
2022/08/10 00:48:05;;;;;;;5.80;5.40;;;;;;;23.24;58.35;94972.88;5053015;28;20485;-78
2022/08/10 00:50:33;;;;;;;6.63;5.40;;;;;;;23.09;58.95;94985.63;5018095;28;20461;-78
2022/08/10 00:53:00;;;;;;;5.77;5.23;;;;;;;23.09;59.54;94988.31;5053069;28;20449;-79
2022/08/10 00:55:27;;;;;;;6.97;5.63;;;;;;;23.12;59.31;94991.41;5052957;28;20940;-78
2022/08/10 00:57:55;;;;;;;6.43;5.27;;;;;;;23.15;59.63;94985.66;5052839;28;20469;-79
2022/08/10 01:00:22;;;;;;;6.27;5.67;;;;;;;23.18;59.21;94987.09;5051962;28;20832;-79
2022/08/10 01:02:49;;;;;;;6.57;5.97;;;;;;;23.10;59.08;94977.41;5052639;28;20963;-78
2022/08/10 01:05:18;;;;;;;7.70;6.27;;;;;;;23.10;59.14;94981.94;5052906;28;20437;-78
2022/08/10 01:08:10;;;;;;;6.40;5.00;;;;;;;22.96;59.70;94977.59;5052622;28;20578;-78
2022/08/10 01:10:45;;;;;;;5.53;5.10;;;;;;;22.95;59.97;94979.47;5052683;28;20557;-77
2022/08/10 01:13:19;;;;;;;6.37;5.50;;;;;;;22.94;60.17;94987.69;5052867;28;20441;-78
2022/08/10 01:15:59;;;;;;;6.20;5.60;;;;;;;22.93;59.71;94983.38;5052989;28;20445;-78
2022/08/10 01:18:40;;;;;;;6.33;5.73;;;;;;;22.94;60.22;94982.34;5052827;28;20938;-78
2022/08/10 01:21:26;;;;;;;7.17;5.50;;;;;;;22.87;59.97;94993.03;5052489;28;20452;-78
2022/08/10 01:24:11;;;;;;;6.40;5.90;;;;;;;22.77;60.66;94980.00;5052852;28;20449;-78
2022/08/10 01:27:01;;;;;;;12.10;5.97;;;;;;;22.80;60.89;94992.97;5052420;28;20453;-79
2022/08/10 01:30:01;;;;;;;6.40;5.80;;;;;;;22.79;60.52;94994.00;5052198;28;20456;-79
2022/08/10 01:32:37;;;;;;;6.10;5.60;;;;;;;22.84;60.48;94980.91;5050098;28;20548;-78
2022/08/10 01:35:15;;;;;;;6.93;6.40;;;;;;;22.86;60.30;94984.19;5052572;28;20438;-78
2022/08/10 01:37:49;;;;;;;6.00;5.50;;;;;;;22.73;60.15;94981.44;5052141;28;20450;-78
2022/08/10 01:40:17;;;;;;;8.20;7.20;;;;;;;22.84;60.89;94988.06;5052224;28;20944;-79
2022/08/10 01:42:45;;;;;;;6.30;5.70;;;;;;;22.91;60.51;94988.09;5052358;28;20444;-78
2022/08/10 01:45:15;;;;;;;6.63;6.10;;;;;;;22.93;60.65;94976.16;5033409;28;20446;-79
2022/08/10 01:50:33;;;;;;;11.53;5.63;;;;;;;22.86;60.66;94975.34;5052174;28;20445;-78
2022/08/10 01:53:04;;;;;;;6.43;5.90;;;;;;;22.84;60.63;94961.31;5051799;28;20450;-77
2022/08/10 01:55:33;;;;;;;6.07;5.47;;;;;;;22.76;60.77;94966.84;5051959;28;20811;-79
2022/08/10 01:58:03;;;;;;;6.20;5.60;;;;;;;22.70;61.25;94965.78;5051772;28;20486;-77
2022/08/10 02:00:35;;;;;;;6.10;5.57;;;;;;;22.64;61.08;94966.63;5052221;28;20437;-78
2022/08/10 02:03:06;;;;;;;6.77;6.27;;;;;;;22.64;61.05;94969.28;5051819;28;20484;-78
2022/08/10 02:05:35;;;;;;;8.03;5.40;;;;;;;22.63;61.01;94970.31;5052014;28;20441;-78
2022/08/10 02:08:05;;;;;;;7.13;6.43;;;;;;;22.61;60.81;94972.38;5051765;28;21050;-78
2022/08/10 02:10:35;;;;;;;6.70;6.10;;;;;;;22.52;61.20;94962.84;5051563;28;20521;-78
2022/08/10 02:13:03;;;;;;;6.27;5.77;;;;;;;22.54;61.34;94971.50;5051789;28;20445;-79
2022/08/10 02:15:34;;;;;;;7.27;5.97;;;;;;;22.54;61.53;94971.50;5051604;28;20445;-77
2022/08/10 02:18:04;;;;;;;6.43;5.93;;;;;;;22.50;61.66;94965.75;5051664;28;20448;-78
2022/08/10 02:20:35;;;;;;;9.63;7.17;;;;;;;22.39;61.75;94971.69;5051655;28;20448;-78
2022/08/10 02:23:08;;;;;;;6.23;5.73;;;;;;;22.27;62.49;94975.97;5051608;28;20445;-78
2022/08/10 02:25:37;;;;;;;6.40;5.80;;;;;;;22.24;63.39;94960.31;5051708;28;20452;-78
2022/08/10 02:28:06;;;;;;;9.03;8.07;;;;;;;22.24;62.91;94960.31;5051739;28;20846;-79
2022/08/10 02:30:38;;;;;;;6.60;5.87;;;;;;;22.24;62.34;94965.66;5051762;28;20453;-77
2022/08/10 02:33:06;;;;;;;6.03;5.53;;;;;;;22.11;62.70;94970.97;5051746;28;20452;-79
2022/08/10 02:35:35;;;;;;;7.07;6.37;;;;;;;22.10;62.91;94975.47;5051484;28;20971;-78
2022/08/10 02:38:07;;;;;;;6.80;6.30;;;;;;;22.11;63.06;94970.97;5052072;28;20437;-78
2022/08/10 02:40:43;;;;;;;6.50;6.00;;;;;;;22.12;62.51;94983.28;5017017;28;21002;-78
2022/08/10 02:43:20;;;;;;;7.43;6.63;;;;;;;22.10;63.04;94967.47;5051447;28;20450;-78
2022/08/10 02:45:52;;;;;;;7.07;6.37;;;;;;;22.12;62.77;94970.75;5051319;28;20449;-78
2022/08/10 02:48:23;;;;;;;7.10;6.40;;;;;;;22.14;62.78;94967.88;5051212;28;20838;-79
2022/08/10 02:50:57;;;;;;;7.00;5.63;;;;;;;22.13;63.09;94964.38;5017144;28;20500;-79
2022/08/10 02:53:31;;;;;;;8.10;6.37;;;;;;;22.21;62.88;94976.75;5032827;28;20433;-78
2022/08/10 02:56:01;;;;;;;6.70;6.10;;;;;;;22.16;62.70;94969.31;5051266;28;20460;-78
2022/08/10 02:58:33;;;;;;;6.77;6.10;;;;;;;22.14;62.41;94976.72;5051541;28;20513;-79
2022/08/10 03:01:06;;;;;;;6.13;5.53;;;;;;;22.16;62.29;94979.19;5051520;28;20444;-78
2022/08/10 03:03:43;;;;;;;7.47;6.77;;;;;;;22.22;62.60;94981.88;5051277;28;20450;-78
2022/08/10 03:06:14;;;;;;;6.50;5.90;;;;;;;22.28;62.20;94976.78;5051659;28;20831;-78
2022/08/10 03:08:43;;;;;;;7.13;6.43;;;;;;;22.34;61.98;94986.69;5051578;28;20477;-79
2022/08/10 03:11:16;;;;;;;6.20;5.60;;;;;;;22.33;61.93;94977.84;5051131;28;20925;-78
2022/08/10 03:13:44;;;;;;;6.60;6.00;;;;;;;22.28;61.92;94982.97;5051270;28;20437;-77
2022/08/10 03:16:14;;;;;;;7.33;6.70;;;;;;;22.31;61.76;94984.41;5050966;28;20470;-79
2022/08/10 03:18:41;;;;;;;9.43;6.23;;;;;;;22.31;62.14;94979.88;5051436;28;20939;-79
2022/08/10 03:21:09;;;;;;;6.87;6.27;;;;;;;22.39;62.00;94989.56;5051176;28;20445;-78
2022/08/10 03:23:39;;;;;;;6.53;5.83;;;;;;;22.45;61.93;94997.63;5053827;28;20825;-78
2022/08/10 03:26:07;;;;;;;9.23;7.37;;;;;;;22.44;61.47;94997.81;5019944;28;20482;-78
2022/08/10 03:28:36;;;;;;;7.70;7.00;;;;;;;22.36;62.36;94995.31;5054664;28;20477;-78
2022/08/10 03:31:03;;;;;;;8.60;6.00;;;;;;;22.29;62.17;94999.84;5035586;28;20441;-79
2022/08/10 03:33:34;;;;;;;8.30;6.47;;;;;;;22.21;62.42;95001.63;5053506;28;20452;-78
2022/08/10 03:36:01;;;;;;;10.80;6.00;;;;;;;22.28;62.24;94999.00;5054500;28;20441;-78
2022/08/10 03:38:28;;;;;;;10.87;5.93;;;;;;;22.25;62.39;94994.84;5054721;28;20437;-78
2022/08/10 03:40:57;;;;;;;6.77;6.17;;;;;;;22.30;62.22;94999.63;5054441;28;20445;-78
2022/08/10 03:43:26;;;;;;;7.97;6.80;;;;;;;22.39;62.53;95005.63;5054062;28;20855;-78
2022/08/10 03:45:57;;;;;;;7.50;6.80;;;;;;;22.38;62.35;95014.66;5054183;28;20438;-79
2022/08/10 03:48:26;;;;;;;7.97;6.37;;;;;;;22.28;62.77;95007.03;5054500;28;20474;-78
2022/08/10 03:50:55;;;;;;;7.50;6.90;;;;;;;22.28;62.75;95015.06;5053919;28;20449;-79
2022/08/10 03:53:22;;;;;;;7.53;6.80;;;;;;;22.28;62.65;95008.88;5054308;28;20540;-78
2022/08/10 03:55:50;;;;;;;11.10;7.40;;;;;;;22.22;62.45;95016.66;5054060;28;20960;-78
2022/08/10 03:58:17;;;;;;;5.83;5.43;;;;;;;22.23;62.81;95014.78;5053802;28;20489;-78
2022/08/10 04:00:46;;;;;;;9.53;6.27;;;;;;;22.27;62.50;95015.25;5054203;28;20442;-79
2022/08/10 04:03:14;;;;;;;10.30;6.20;;;;;;;22.31;62.74;95025.34;5054085;28;20511;-78
2022/08/10 04:05:40;;;;;;;7.33;6.30;;;;;;;22.38;62.56;95025.38;5054116;28;20429;-78
2022/08/10 04:08:09;;;;;;;7.73;6.93;;;;;;;22.42;61.94;95026.59;5053995;28;20489;-79
2022/08/10 04:10:36;;;;;;;6.67;6.07;;;;;;;22.42;62.91;95026.59;5053676;28;20442;-79
2022/08/10 04:13:03;;;;;;;8.77;6.67;;;;;;;22.39;62.41;95021.66;5053800;28;20906;-78
2022/08/10 04:15:29;;;;;;;8.33;5.97;;;;;;;22.41;62.50;95027.63;5053836;28;20948;-78
2022/08/10 04:17:56;;;;;;;6.53;6.00;;;;;;;22.40;63.04;95020.63;5053656;28;20434;-79
2022/08/10 04:20:30;;;;;;;11.07;6.73;;;;;;;22.49;62.13;95028.28;5053890;28;20454;-79
2022/08/10 04:23:02;;;;;;;8.70;7.00;;;;;;;22.69;62.07;95033.72;5053666;28;20488;-79
2022/08/10 04:25:31;;;;;;;8.93;7.63;;;;;;;22.96;60.64;95034.63;5053545;28;20438;-77
2022/08/10 04:27:58;;;;;;;7.03;6.33;;;;;;;23.31;59.49;95035.28;5053492;28;20457;-79
2022/08/10 04:30:28;;;;;;;7.13;6.37;;;;;;;23.69;58.35;95034.69;5053688;28;20928;-78
2022/08/10 04:32:56;;;;;;;7.77;6.80;;;;;;;24.09;57.97;95030.94;5053272;28;20453;-79
2022/08/10 04:35:26;;;;;;;6.60;6.10;;;;;;;24.44;56.42;95029.84;5018748;28;20446;-78
2022/08/10 04:37:55;;;;;;;6.40;5.80;;;;;;;24.78;55.07;95024.09;5053395;28;20438;-79
2022/08/10 04:40:23;;;;;;;7.63;6.77;;;;;;;25.29;54.01;95032.09;5053110;28;20948;-78
2022/08/10 04:42:51;;;;;;;6.50;6.00;;;;;;;25.66;52.54;95028.69;5053191;28;20445;-78
2022/08/10 04:45:18;;;;;;;11.33;6.40;;;;;;;26.00;51.96;95022.81;5053274;28;20452;-79
2022/08/10 04:47:45;;;;;;;6.73;6.00;;;;;;;26.30;51.36;95020.22;5053266;28;20537;-79
2022/08/10 04:50:12;;;;;;;12.67;6.50;;;;;;;26.51;50.07;95025.19;5053085;28;20477;-79
2022/08/10 04:52:39;;;;;;;6.50;6.00;;;;;;;26.81;49.78;95025.22;5052985;28;20449;-78
2022/08/10 04:55:06;;;;;;;6.50;5.80;;;;;;;27.17;48.46;95028.91;5053303;28;20760;-77
2022/08/10 04:57:33;;;;;;;7.03;6.47;;;;;;;27.48;47.67;95025.16;5033944;28;20477;-78
2022/08/10 05:00:05;;;;;;;5.90;5.27;;;;;;;27.75;46.07;95026.38;5052970;28;20446;-79
2022/08/10 05:02:32;;;;;;;5.27;4.87;;;;;;;27.70;46.69;95018.16;5034285;28;20794;-79
2022/08/10 05:04:59;;;;;;;8.07;6.80;;;;;;;27.89;46.02;95023.47;5052807;28;20444;-79
2022/08/10 05:07:26;;;;;;;5.10;4.73;;;;;;;27.96;45.93;95026.84;5052707;28;20446;-79
2022/08/10 05:09:54;;;;;;;6.77;6.20;;;;;;;28.04;45.70;95029.19;5052602;28;20535;-78
2022/08/10 05:12:21;;;;;;;12.97;6.43;;;;;;;28.22;45.04;95031.78;5052561;28;20470;-79
2022/08/10 05:14:48;;;;;;;6.93;6.10;;;;;;;28.51;44.82;95027.31;5052790;28;20449;-79
2022/08/10 05:17:16;;;;;;;11.97;6.37;;;;;;;28.64;44.77;95024.34;5033678;28;20449;-79
2022/08/10 05:19:43;;;;;;;16.57;6.37;;;;;;;28.88;43.96;95025.09;5052592;28;20452;-80
2022/08/10 05:22:09;;;;;;;6.30;5.70;;;;;;;29.04;43.67;95018.13;5052579;28;20444;-78
2022/08/10 05:24:36;;;;;;;9.93;6.60;;;;;;;29.20;43.34;95024.63;5052483;28;20442;-80
2022/08/10 05:27:05;;;;;;;6.37;5.87;;;;;;;29.33;43.62;95021.63;5052545;28;20515;-79
2022/08/10 05:29:33;;;;;;;6.70;6.00;;;;;;;29.58;43.10;95024.00;5052459;28;20851;-78
2022/08/10 05:32:02;;;;;;;6.90;6.03;;;;;;;29.87;43.12;95027.44;5052794;28;20804;-78
2022/08/10 05:34:30;;;;;;;7.00;6.30;;;;;;;30.07;42.38;95025.09;5052325;28;20441;-79
2022/08/10 05:36:58;;;;;;;9.03;6.57;;;;;;;30.34;42.58;95024.34;5052047;28;20442;-79
2022/08/10 05:39:25;;;;;;;9.10;6.20;;;;;;;30.63;42.66;95033.16;5052507;28;20430;-79
2022/08/10 05:41:54;;;;;;;8.67;7.97;;;;;;;30.41;44.47;95025.84;5052037;28;20458;-79
2022/08/10 05:44:22;;;;;;;10.30;7.30;;;;;;;30.16;45.22;95028.19;5052038;28;20430;-79
2022/08/10 05:46:49;;;;;;;8.50;7.77;;;;;;;30.15;45.99;95026.53;5051803;28;20438;-79
2022/08/10 05:49:16;;;;;;;10.53;8.93;;;;;;;29.55;47.77;95028.00;5051660;28;20487;-79
2022/08/10 05:51:45;;;;;;;12.63;9.23;;;;;;;29.27;48.77;95015.31;5052155;28;20936;-79
2022/08/10 05:54:14;;;;;;;13.57;8.70;;;;;;;28.77;50.14;95019.72;5051862;28;20975;-79
2022/08/10 05:56:44;;;;;;;9.63;7.70;;;;;;;28.76;49.76;95015.38;5033654;28;20453;-79
2022/08/10 05:59:12;;;;;;;10.07;8.50;;;;;;;28.50;50.93;95024.84;5050783;28;20516;-79
2022/08/10 06:01:42;;;;;;;9.47;8.67;;;;;;;28.55;51.17;95025.75;5052156;28;20449;-79
2022/08/10 06:04:10;;;;;;;10.07;9.17;;;;;;;28.89;50.31;95024.03;5051675;28;20813;-78
2022/08/10 06:06:38;;;;;;;9.83;8.77;;;;;;;29.03;49.41;95029.19;5052155;28;20448;-78
2022/08/10 06:09:07;;;;;;;9.50;8.57;;;;;;;29.20;49.39;95024.63;5052102;28;20485;-80
2022/08/10 06:11:36;;;;;;;10.77;8.40;;;;;;;29.25;49.39;95033.66;5051885;28;20446;-79
2022/08/10 06:16:50;;;;;;;9.60;8.40;;;;;;;29.45;47.49;95027.00;5051906;28;20856;-79
2022/08/10 06:19:17;;;;;;;10.73;9.53;;;;;;;29.20;47.83;95027.31;5051652;28;20881;-80
2022/08/10 06:21:45;;;;;;;10.13;9.13;;;;;;;29.11;47.94;95028.78;5051952;28;20483;-78
2022/08/10 06:24:16;;;;;;;10.80;9.70;;;;;;;29.37;48.26;95027.38;5051638;28;20456;-79
2022/08/10 06:26:43;;;;;;;8.90;8.10;;;;;;;29.62;48.82;95029.72;5051853;28;20477;-78
2022/08/10 06:29:12;;;;;;;9.47;8.47;;;;;;;29.79;47.70;95020.56;5051744;28;20925;-79
2022/08/10 06:31:44;;;;;;;9.07;8.17;;;;;;;30.03;46.83;95020.38;5017091;28;20457;-78
2022/08/10 06:34:12;;;;;;;9.90;8.87;;;;;;;30.00;46.25;95024.38;5052125;28;20465;-78
2022/08/10 06:36:42;;;;;;;10.00;9.00;;;;;;;30.09;45.97;95028.34;5051671;28;20450;-79
2022/08/10 06:39:09;;;;;;;11.73;8.73;;;;;;;30.20;46.65;95030.13;5017295;28;20441;-79
2022/08/10 06:41:46;;;;;;;9.47;8.43;;;;;;;30.45;46.67;95034.28;5051444;28;20446;-78
2022/08/10 06:44:19;;;;;;;9.40;8.50;;;;;;;30.81;45.01;95041.81;5051695;28;20450;-81
2022/08/10 06:46:49;;;;;;;13.40;7.63;;;;;;;30.85;42.15;95033.16;5051806;28;20441;-79
2022/08/10 06:49:18;;;;;;;9.40;8.37;;;;;;;30.39;43.77;95030.69;5051548;28;20524;-79
2022/08/10 06:51:47;;;;;;;10.07;9.20;;;;;;;30.53;45.03;95028.41;5051272;28;20812;-79
2022/08/10 06:54:18;;;;;;;11.60;9.23;;;;;;;30.63;45.28;95028.56;5051607;28;20461;-79
2022/08/10 06:56:48;;;;;;;11.83;9.90;;;;;;;30.42;45.77;95030.19;5051644;28;20448;-79
2022/08/10 06:59:19;;;;;;;11.00;9.37;;;;;;;30.42;43.76;95032.88;5055410;28;20523;-79
2022/08/10 07:01:52;;;;;;;8.43;7.63;;;;;;;29.96;42.24;95033.25;5055119;28;20442;-79
2022/08/10 07:04:23;;;;;;;9.77;8.80;;;;;;;29.65;45.10;95034.66;5037017;28;20472;-79
2022/08/10 07:06:52;;;;;;;16.37;9.17;;;;;;;29.76;45.67;95028.31;5055727;28;20503;-79
2022/08/10 07:09:20;;;;;;;9.33;8.40;;;;;;;29.70;43.94;95026.59;5055399;28;20821;-79
2022/08/10 07:11:51;;;;;;;12.77;9.83;;;;;;;29.84;44.37;95026.06;5055309;28;20457;-78
2022/08/10 07:14:20;;;;;;;9.40;8.47;;;;;;;30.26;44.44;95028.31;5054998;28;20445;-80
2022/08/10 07:16:48;;;;;;;11.47;9.90;;;;;;;30.45;43.80;95031.56;5054828;28;20921;-79
2022/08/10 07:19:16;;;;;;;12.43;10.17;;;;;;;30.50;43.34;95032.44;5054811;28;20449;-79
2022/08/10 07:21:44;;;;;;;9.37;8.13;;;;;;;30.49;43.14;95025.38;5055144;28;20438;-79
2022/08/10 07:24:14;;;;;;;10.10;9.20;;;;;;;30.66;43.71;95019.16;5036086;28;20430;-80
2022/08/10 07:26:47;;;;;;;11.57;9.93;;;;;;;30.55;44.24;95023.56;5055095;28;20457;-80
2022/08/10 07:29:17;;;;;;;13.60;10.70;;;;;;;30.65;44.87;95021.03;5054680;28;20485;-79
2022/08/10 07:31:44;;;;;;;12.10;11.00;;;;;;;30.64;44.95;95015.84;5054643;28;20512;-78
2022/08/10 07:34:14;;;;;;;10.50;9.60;;;;;;;30.61;45.33;95016.34;5054659;28;20442;-79
2022/08/10 07:36:44;;;;;;;10.50;9.60;;;;;;;30.51;43.17;95023.25;5054604;28;20438;-79
2022/08/10 07:39:12;;;;;;;11.83;10.00;;;;;;;30.51;43.74;95011.59;5054547;28;20499;-79
2022/08/10 07:41:42;;;;;;;10.83;9.77;;;;;;;30.56;43.15;95022.50;5054944;28;20872;-79
2022/08/10 07:44:11;;;;;;;10.70;9.50;;;;;;;30.69;43.33;95008.63;5054462;28;20449;-79
2022/08/10 07:46:45;;;;;;;11.03;10.07;;;;;;;30.64;43.84;95005.00;5054220;28;20880;-79
2022/08/10 07:49:18;;;;;;;10.83;9.87;;;;;;;30.62;43.23;95017.97;5054309;28;20558;-79
2022/08/10 07:51:45;;;;;;;11.93;9.40;;;;;;;30.79;42.89;95016.03;5054200;28;20851;-79
2022/08/10 07:54:15;;;;;;;11.17;10.23;;;;;;;30.87;43.60;95014.78;5054372;28;20449;-80
2022/08/10 07:56:46;;;;;;;13.70;12.13;;;;;;;30.67;42.19;95002.63;5054152;28;20445;-79
2022/08/10 07:59:17;;;;;;;14.63;10.93;;;;;;;30.51;43.24;94993.47;5018935;28;20983;-80
2022/08/10 08:01:49;;;;;;;11.97;10.73;;;;;;;30.15;44.85;95003.00;5054141;28;20445;-79
2022/08/10 08:04:19;;;;;;;17.70;12.00;;;;;;;30.10;45.45;95004.81;5054189;28;20444;-79
2022/08/10 08:06:48;;;;;;;12.20;10.90;;;;;;;30.17;45.65;94984.63;5019308;28;20430;-79
2022/08/10 08:09:15;;;;;;;12.67;11.37;;;;;;;30.34;45.23;94989.97;5053354;28;20819;-79
2022/08/10 08:11:44;;;;;;;10.90;9.17;;;;;;;30.42;44.62;94988.75;5053699;28;20438;-79
2022/08/10 08:14:13;;;;;;;9.50;8.70;;;;;;;30.64;43.23;95000.41;5054214;28;20438;-78
2022/08/10 08:16:45;;;;;;;10.83;9.73;;;;;;;30.85;43.97;95000.66;5054016;28;20448;-80
2022/08/10 08:19:14;;;;;;;13.77;8.60;;;;;;;31.02;41.91;95001.41;5053799;28;20457;-79
2022/08/10 08:21:42;;;;;;;10.80;9.90;;;;;;;31.06;41.89;94997.91;5053577;28;20446;-79
2022/08/10 08:24:13;;;;;;;10.30;9.30;;;;;;;31.17;41.58;95004.28;5054082;28;20453;-79
2022/08/10 08:26:42;;;;;;;12.33;9.83;;;;;;;31.14;42.03;94983.06;5053819;28;20453;-80
2022/08/10 08:29:12;;;;;;;11.67;10.63;;;;;;;31.10;41.96;94992.81;5018875;28;20441;-80
2022/08/10 08:31:40;;;;;;;12.93;10.90;;;;;;;31.04;42.85;94988.41;5053968;28;20463;-79
2022/08/10 08:34:08;;;;;;;11.97;9.47;;;;;;;31.03;41.71;94998.44;5034630;28;20941;-79
2022/08/10 08:36:40;;;;;;;11.47;8.13;;;;;;;30.86;40.64;94984.13;5053584;28;20537;-79
2022/08/10 08:39:07;;;;;;;9.83;8.83;;;;;;;30.88;41.28;94983.88;5053388;28;20453;-79
2022/08/10 08:41:57;;;;;;;10.30;9.00;;;;;;;30.87;41.94;94985.78;5053302;28;20437;-78
2022/08/10 08:44:35;;;;;;;12.60;10.63;;;;;;;31.03;41.83;94993.00;5053108;28;20481;-79
2022/08/10 08:47:39;;;;;;;19.27;11.00;;;;;;;31.03;42.54;94994.91;5053435;28;20444;-79
2022/08/10 08:50:27;;;;;;;15.20;9.93;;;;;;;30.73;42.07;94987.25;5053077;28;20485;-80
2022/08/10 08:53:05;;;;;;;9.57;8.73;;;;;;;30.73;41.03;94982.66;4991337;28;20448;-79
2022/08/10 08:55:44;;;;;;;12.27;10.77;;;;;;;30.89;42.81;94980.09;4991378;28;20931;-79
2022/08/10 09:01:30;;;;;;;7.67;6.97;;;;;;;30.95;40.07;94981.81;4981099;28;20444;-79
2022/08/10 09:04:29;;;;;;;8.90;7.77;;;;;;;30.67;39.20;94980.97;4991136;28;20444;-78
2022/08/10 09:07:20;;;;;;;11.53;7.73;;;;;;;30.51;41.06;94982.63;4932476;29;20978;-79
2022/08/10 09:10:03;;;;;;;7.80;7.10;;;;;;;30.64;40.79;94973.31;4933043;29;20491;-78
2022/08/10 09:12:43;;;;;;;9.53;8.30;;;;;;;30.77;40.63;94966.69;4932919;29;20518;-79
2022/08/10 09:15:18;;;;;;;10.63;7.73;;;;;;;30.80;40.14;94972.44;4933058;29;20849;-78
2022/08/10 09:17:55;;;;;;;10.63;9.47;;;;;;;30.74;42.30;94968.03;4885678;29;20946;-79
2022/08/10 09:20:27;;;;;;;9.20;8.40;;;;;;;30.81;41.61;94962.41;4885123;29;20458;-78
2022/08/10 09:23:01;;;;;;;8.17;7.37;;;;;;;30.90;41.94;94962.75;4933017;29;20510;-79
2022/08/10 09:25:34;;;;;;;8.83;7.87;;;;;;;30.78;40.69;94963.72;4933130;29;20450;-79
2022/08/10 09:28:05;;;;;;;9.80;8.80;;;;;;;30.81;41.97;94967.81;4932732;29;20439;-79
2022/08/10 09:30:38;;;;;;;10.63;9.47;;;;;;;30.89;41.83;94964.66;4958399;28;20485;-80
2022/08/10 09:33:11;;;;;;;12.13;8.83;;;;;;;30.63;41.44;94966.25;4971266;28;20828;-80
2022/08/10 09:36:01;;;;;;;10.13;8.50;;;;;;;30.75;41.38;94953.41;4971450;28;20841;-79
2022/08/10 09:38:37;;;;;;;9.53;8.73;;;;;;;30.87;40.92;94949.72;4971001;28;20453;-78
2022/08/10 09:41:19;;;;;;;9.60;8.60;;;;;;;30.99;41.74;94948.53;4971160;28;20449;-78
2022/08/10 09:43:54;;;;;;;10.57;9.60;;;;;;;30.95;41.19;94952.81;5005716;28;20438;-78
2022/08/10 09:46:42;;;;;;;10.10;9.10;;;;;;;30.72;42.12;94951.22;5052178;28;20433;-79
2022/08/10 09:49:17;;;;;;;9.50;8.63;;;;;;;30.74;41.89;94948.25;5052135;28;20537;-79
2022/08/10 09:51:54;;;;;;;11.23;7.60;;;;;;;30.51;40.78;94944.69;5052165;28;20489;-79
2022/08/10 09:54:36;;;;;;;8.50;7.70;;;;;;;30.25;41.19;94948.16;5052127;28;20473;-78
2022/08/10 09:57:18;;;;;;;7.50;6.80;;;;;;;29.96;41.75;94942.06;5051929;28;20445;-78
2022/08/10 09:59:56;;;;;;;6.70;6.10;;;;;;;29.92;42.22;94938.22;5051806;28;20453;-80
2022/08/10 10:02:29;;;;;;;7.47;6.63;;;;;;;29.78;43.38;94943.16;5052510;28;20492;-79
2022/08/10 10:05:07;;;;;;;8.47;5.90;;;;;;;29.84;43.12;94938.66;5052021;28;20971;-79
2022/08/10 10:07:39;;;;;;;5.83;5.43;;;;;;;29.92;42.76;94932.81;5051943;28;20891;-78
2022/08/10 10:10:11;;;;;;;6.37;5.73;;;;;;;29.91;43.57;94937.41;5051848;28;20485;-77
2022/08/10 10:12:50;;;;;;;12.13;7.73;;;;;;;29.90;42.53;94941.16;5052203;28;20464;-78
2022/08/10 10:15:26;;;;;;;7.20;6.43;;;;;;;30.13;43.14;94933.94;5051909;28;20441;-80
2022/08/10 10:18:08;;;;;;;7.70;7.10;;;;;;;30.27;42.22;94932.47;5051709;28;20956;-80
2022/08/10 10:20:40;;;;;;;6.17;5.57;;;;;;;29.86;42.41;94933.81;5051769;28;20449;-79
2022/08/10 10:23:16;;;;;;;10.83;5.60;;;;;;;29.38;43.09;94937.91;5052185;28;20457;-78
2022/08/10 10:25:57;;;;;;;7.87;6.40;;;;;;;29.30;43.78;94935.63;5051896;28;20771;-78
2022/08/10 10:28:42;;;;;;;5.80;5.40;;;;;;;29.46;44.29;94931.28;5051821;28;20451;-78
2022/08/10 10:31:28;;;;;;;12.40;6.10;;;;;;;29.69;44.26;94919.47;5052656;28;20508;-79
2022/08/10 10:34:06;;;;;;;6.60;5.97;;;;;;;29.74;42.08;94924.94;5055856;28;20441;-79
2022/08/10 10:36:34;;;;;;;6.47;5.97;;;;;;;29.74;42.33;94927.66;5055656;28;20453;-79
2022/08/10 10:39:03;;;;;;;7.50;5.80;;;;;;;29.78;42.40;94917.97;5055700;28;20452;-78
2022/08/10 10:41:37;;;;;;;6.70;6.10;;;;;;;29.83;43.28;94915.38;5055716;28;20449;-78
2022/08/10 10:44:16;;;;;;;8.77;6.60;;;;;;;29.80;43.22;94908.56;5055421;28;20465;-78
2022/08/10 10:46:55;;;;;;;8.77;5.30;;;;;;;29.47;43.05;94909.41;5055499;28;20950;-78
2022/08/10 10:49:37;;;;;;;7.20;6.60;;;;;;;29.43;43.15;94908.22;5021692;28;20445;-79
2022/08/10 10:52:14;;;;;;;6.53;5.93;;;;;;;29.29;43.62;94906.94;5055527;28;20546;-80
2022/08/10 10:55:03;;;;;;;6.47;5.80;;;;;;;29.29;44.66;94912.34;5055493;28;20449;-79
2022/08/10 10:57:38;;;;;;;7.63;6.00;;;;;;;29.40;43.83;94906.03;5054886;28;20477;-77
2022/08/10 11:00:08;;;;;;;7.10;6.50;;;;;;;29.47;43.91;94909.41;5054954;28;21013;-80
2022/08/10 11:02:50;;;;;;;11.80;6.70;;;;;;;29.44;44.43;94907.19;5053246;28;20532;-79
2022/08/10 11:05:29;;;;;;;9.17;7.07;;;;;;;29.59;44.76;94899.31;5055143;28;20481;-79
2022/08/10 11:08:00;;;;;;;7.50;6.57;;;;;;;29.62;44.27;94897.19;5054967;28;20452;-80
2022/08/10 11:10:33;;;;;;;6.83;6.23;;;;;;;29.54;45.08;94899.25;5055013;28;20535;-78
2022/08/10 11:13:18;;;;;;;13.03;5.63;;;;;;;29.25;45.27;94897.69;5054920;28;20446;-78
2022/08/10 11:15:56;;;;;;;7.00;6.20;;;;;;;29.09;45.16;94901.19;5019532;28;20461;-79
2022/08/10 11:18:32;;;;;;;7.00;6.40;;;;;;;28.83;46.12;94908.00;5054942;28;20450;-79
2022/08/10 11:21:12;;;;;;;6.93;6.30;;;;;;;28.92;46.01;94903.91;5054612;28;20456;-79
2022/08/10 11:23:47;;;;;;;10.63;6.50;;;;;;;28.80;46.34;94905.78;5054982;28;20474;-78
2022/08/10 11:26:17;;;;;;;11.13;7.17;;;;;;;28.74;47.12;94904.06;5054934;28;20445;-77
2022/08/10 11:28:50;;;;;;;10.30;7.30;;;;;;;28.74;47.66;94902.19;5055217;28;20438;-80
2022/08/10 11:31:27;;;;;;;7.87;7.13;;;;;;;28.74;47.06;94904.88;5054436;28;20845;-78
2022/08/10 11:33:58;;;;;;;7.43;6.47;;;;;;;28.74;47.91;94902.19;5054910;28;20445;-79
2022/08/10 11:36:31;;;;;;;7.37;6.77;;;;;;;28.72;48.56;94892.69;5054617;28;20445;-78
2022/08/10 11:39:07;;;;;;;14.47;7.47;;;;;;;28.62;46.80;94902.25;5054993;28;20434;-79
2022/08/10 11:41:48;;;;;;;11.43;6.80;;;;;;;28.52;47.49;94896.63;5054574;28;20456;-78
2022/08/10 11:44:28;;;;;;;15.53;6.77;;;;;;;28.49;47.55;94893.59;4972745;28;20932;-78
2022/08/10 11:47:09;;;;;;;11.13;6.23;;;;;;;28.63;48.30;94893.09;5054785;28;20472;-78
2022/08/10 11:49:43;;;;;;;11.03;6.63;;;;;;;28.60;47.30;94893.53;5054269;28;20446;-79
2022/08/10 11:52:15;;;;;;;8.30;6.77;;;;;;;28.57;46.92;94885.94;5054516;28;20481;-79
2022/08/10 11:54:46;;;;;;;7.40;6.70;;;;;;;28.71;47.08;94878.38;5054426;28;20446;-77
2022/08/10 11:57:14;;;;;;;6.83;6.30;;;;;;;28.74;45.88;94872.47;5018911;28;20477;-78
2022/08/10 11:59:55;;;;;;;7.90;7.20;;;;;;;28.79;46.68;94874.44;5054153;28;20449;-79